Aviation Digital Data Service (ADDS)

Output produced by METARs form (0817 UTC 19 April 2019)
found at http://www.aviationweather.gov/metar/data/
 
METAR text: YMHB 190800Z 05005KT CAVOK 13/04 Q1029
Conditions at: YMHB (HOBART/TASMANIA , AU) observed 0800 UTC 19 April 2019
Temperature: 13.0°C (55°F)
Dewpoint: 4.0°C (39°F) [RH = 54%]
Pressure (altimeter): 30.38 inches Hg (1029.0 mb)
Winds: from the NE (50 degrees) at 6 MPH (5 knots; 2.6 m/s)
Visibility: 6 or more miles (10+ km)
Ceiling: ceiling and visibility are OK
Clouds: unknown
Weather: no significant weather observed at this time

METAR text: YMHB 190730Z 10004KT CAVOK 12/05 Q1029
Conditions at: YMHB (HOBART/TASMANIA , AU) observed 0730 UTC 19 April 2019
Temperature: 12.0°C (54°F)
Dewpoint: 5.0°C (41°F) [RH = 62%]
Pressure (altimeter): 30.38 inches Hg (1029.0 mb)
Winds: from the E (100 degrees) at 5 MPH (4 knots; 2.1 m/s)
Visibility: 6 or more miles (10+ km)
Ceiling: ceiling and visibility are OK
Clouds: unknown
Weather: no significant weather observed at this time

METAR text: YMHB 190700Z 10005KT CAVOK 13/05 Q1029
Conditions at: YMHB (HOBART/TASMANIA , AU) observed 0700 UTC 19 April 2019
Temperature: 13.0°C (55°F)
Dewpoint: 5.0°C (41°F) [RH = 58%]
Pressure (altimeter): 30.38 inches Hg (1029.0 mb)
Winds: from the E (100 degrees) at 6 MPH (5 knots; 2.6 m/s)
Visibility: 6 or more miles (10+ km)
Ceiling: ceiling and visibility are OK
Clouds: unknown
Weather: no significant weather observed at this time

METAR text: YMHB 190630Z 10007KT CAVOK 15/05 Q1029
Conditions at: YMHB (HOBART/TASMANIA , AU) observed 0630 UTC 19 April 2019
Temperature: 15.0°C (59°F)
Dewpoint: 5.0°C (41°F) [RH = 51%]
Pressure (altimeter): 30.38 inches Hg (1029.0 mb)
Winds: from the E (100 degrees) at 8 MPH (7 knots; 3.6 m/s)
Visibility: 6 or more miles (10+ km)
Ceiling: ceiling and visibility are OK
Clouds: unknown
Weather: no significant weather observed at this time

METAR text: YMHB 190600Z 11007KT 9999 FEW045 15/04 Q1029
Conditions at: YMHB (HOBART/TASMANIA , AU) observed 0600 UTC 19 April 2019
Temperature: 15.0°C (59°F)
Dewpoint: 4.0°C (39°F) [RH = 48%]
Pressure (altimeter): 30.38 inches Hg (1029.0 mb)
Winds: from the ESE (110 degrees) at 8 MPH (7 knots; 3.6 m/s)
Visibility: 6 or more miles (10+ km)
Ceiling: at least 12,000 feet AGL
Clouds: few clouds at 4500 feet AGL
Weather: no significant weather observed at this time

METAR text: YMHB 190530Z 13008KT 9999 FEW045 15/03 Q1029
Conditions at: YMHB (HOBART/TASMANIA , AU) observed 0530 UTC 19 April 2019
Temperature: 15.0°C (59°F)
Dewpoint: 3.0°C (37°F) [RH = 44%]
Pressure (altimeter): 30.38 inches Hg (1029.0 mb)
Winds: from the SE (130 degrees) at 9 MPH (8 knots; 4.1 m/s)
Visibility: 6 or more miles (10+ km)
Ceiling: at least 12,000 feet AGL
Clouds: few clouds at 4500 feet AGL
Weather: no significant weather observed at this time

METAR text: YMHB 190500Z 14010KT 9999 FEW045 15/04 Q1029
Conditions at: YMHB (HOBART/TASMANIA , AU) observed 0500 UTC 19 April 2019
Temperature: 15.0°C (59°F)
Dewpoint: 4.0°C (39°F) [RH = 48%]
Pressure (altimeter): 30.38 inches Hg (1029.0 mb)
Winds: from the SE (140 degrees) at 12 MPH (10 knots; 5.1 m/s)
Visibility: 6 or more miles (10+ km)
Ceiling: at least 12,000 feet AGL
Clouds: few clouds at 4500 feet AGL
Weather: no significant weather observed at this time

METAR text: YMHB 190430Z 14009KT 9999 FEW045 15/04 Q1029
Conditions at: YMHB (HOBART/TASMANIA , AU) observed 0430 UTC 19 April 2019
Temperature: 15.0°C (59°F)
Dewpoint: 4.0°C (39°F) [RH = 48%]
Pressure (altimeter): 30.38 inches Hg (1029.0 mb)
Winds: from the SE (140 degrees) at 10 MPH (9 knots; 4.6 m/s)
Visibility: 6 or more miles (10+ km)
Ceiling: at least 12,000 feet AGL
Clouds: few clouds at 4500 feet AGL
Weather: no significant weather observed at this time

METAR text: YMHB 190400Z 14010KT 9999 FEW045 15/03 Q1029
Conditions at: YMHB (HOBART/TASMANIA , AU) observed 0400 UTC 19 April 2019
Temperature: 15.0°C (59°F)
Dewpoint: 3.0°C (37°F) [RH = 44%]
Pressure (altimeter): 30.38 inches Hg (1029.0 mb)
Winds: from the SE (140 degrees) at 12 MPH (10 knots; 5.1 m/s)
Visibility: 6 or more miles (10+ km)
Ceiling: at least 12,000 feet AGL
Clouds: few clouds at 4500 feet AGL
Weather: no significant weather observed at this time

METAR text: YMHB 190330Z 14008KT 9999 FEW045 15/03 Q1029
Conditions at: YMHB (HOBART/TASMANIA , AU) observed 0330 UTC 19 April 2019
Temperature: 15.0°C (59°F)
Dewpoint: 3.0°C (37°F) [RH = 44%]
Pressure (altimeter): 30.38 inches Hg (1029.0 mb)
Winds: from the SE (140 degrees) at 9 MPH (8 knots; 4.1 m/s)
Visibility: 6 or more miles (10+ km)
Ceiling: at least 12,000 feet AGL
Clouds: few clouds at 4500 feet AGL
Weather: no significant weather observed at this time

METAR text: YMHB 190300Z 15008KT 9999 FEW045 15/03 Q1030
Conditions at: YMHB (HOBART/TASMANIA , AU) observed 0300 UTC 19 April 2019
Temperature: 15.0°C (59°F)
Dewpoint: 3.0°C (37°F) [RH = 44%]
Pressure (altimeter): 30.41 inches Hg (1030.0 mb)
Winds: from the SSE (150 degrees) at 9 MPH (8 knots; 4.1 m/s)
Visibility: 6 or more miles (10+ km)
Ceiling: at least 12,000 feet AGL
Clouds: few clouds at 4500 feet AGL
Weather: no significant weather observed at this time

METAR text: YMHB 190230Z 36003KT 9999 FEW040 15/02 Q1030
Conditions at: YMHB (HOBART/TASMANIA , AU) observed 0230 UTC 19 April 2019
Temperature: 15.0°C (59°F)
Dewpoint: 2.0°C (36°F) [RH = 41%]
Pressure (altimeter): 30.41 inches Hg (1030.0 mb)
Winds: from the N (360 degrees) at 3 MPH (3 knots; 1.5 m/s)
Visibility: 6 or more miles (10+ km)
Ceiling: at least 12,000 feet AGL
Clouds: few clouds at 4000 feet AGL
Weather: no significant weather observed at this time

METAR text: YMHB 190200Z 03005KT 9999 FEW040 14/01 Q1031
Conditions at: YMHB (HOBART/TASMANIA , AU) observed 0200 UTC 19 April 2019
Temperature: 14.0°C (57°F)
Dewpoint: 1.0°C (34°F) [RH = 41%]
Pressure (altimeter): 30.44 inches Hg (1031.0 mb)
Winds: from the NNE (30 degrees) at 6 MPH (5 knots; 2.6 m/s)
Visibility: 6 or more miles (10+ km)
Ceiling: at least 12,000 feet AGL
Clouds: few clouds at 4000 feet AGL
Weather: no significant weather observed at this time

METAR text: YMHB 190130Z 03006KT 9999 FEW040 14/03 Q1031
Conditions at: YMHB (HOBART/TASMANIA , AU) observed 0130 UTC 19 April 2019
Temperature: 14.0°C (57°F)
Dewpoint: 3.0°C (37°F) [RH = 47%]
Pressure (altimeter): 30.44 inches Hg (1031.0 mb)
Winds: from the NNE (30 degrees) at 7 MPH (6 knots; 3.1 m/s)
Visibility: 6 or more miles (10+ km)
Ceiling: at least 12,000 feet AGL
Clouds: few clouds at 4000 feet AGL
Weather: no significant weather observed at this time

METAR text: YMHB 190100Z 26004KT 210V330 9999 FEW035 13/03 Q1031 RF00.0/000.0
Conditions at: YMHB (HOBART/TASMANIA , AU) observed 0100 UTC 19 April 2019
Temperature: 13.0°C (55°F)
Dewpoint: 3.0°C (37°F) [RH = 51%]
Pressure (altimeter): 30.44 inches Hg (1031.0 mb)
Winds: from the W (260 degrees) at 5 MPH (4 knots; 2.1 m/s)
Visibility: 6 or more miles (10+ km)
Ceiling: at least 12,000 feet AGL
Clouds: few clouds at 3500 feet AGL
Weather: no significant weather observed at this time

METAR text: YMHB 190030Z 31006KT 9999 FEW035 12/05 Q1032
Conditions at: YMHB (HOBART/TASMANIA , AU) observed 0030 UTC 19 April 2019
Temperature: 12.0°C (54°F)
Dewpoint: 5.0°C (41°F) [RH = 62%]
Pressure (altimeter): 30.47 inches Hg (1032.0 mb)
Winds: from the NW (310 degrees) at 7 MPH (6 knots; 3.1 m/s)
Visibility: 6 or more miles (10+ km)
Ceiling: at least 12,000 feet AGL
Clouds: few clouds at 3500 feet AGL
Weather: no significant weather observed at this time

METAR text: YMHB 190000Z 31008KT 9999 FEW030 12/05 Q1032
Conditions at: YMHB (HOBART/TASMANIA , AU) observed 0000 UTC 19 April 2019
Temperature: 12.0°C (54°F)
Dewpoint: 5.0°C (41°F) [RH = 62%]
Pressure (altimeter): 30.47 inches Hg (1032.0 mb)
Winds: from the NW (310 degrees) at 9 MPH (8 knots; 4.1 m/s)
Visibility: 6 or more miles (10+ km)
Ceiling: at least 12,000 feet AGL
Clouds: few clouds at 3000 feet AGL
Weather: no significant weather observed at this time

METAR text: YMHB 182330Z 32009KT 9999 FEW030 10/05 Q1032
Conditions at: YMHB (HOBART/TASMANIA , AU) observed 2330 UTC 18 April 2019
Temperature: 10.0°C (50°F)
Dewpoint: 5.0°C (41°F) [RH = 71%]
Pressure (altimeter): 30.47 inches Hg (1032.0 mb)
Winds: from the NW (320 degrees) at 10 MPH (9 knots; 4.6 m/s)
Visibility: 6 or more miles (10+ km)
Ceiling: at least 12,000 feet AGL
Clouds: few clouds at 3000 feet AGL
Weather: no significant weather observed at this time

METAR text: YMHB 182300Z 31008KT 9999 FEW025 09/04 Q1032
Conditions at: YMHB (HOBART/TASMANIA , AU) observed 2300 UTC 18 April 2019
Temperature: 9.0°C (48°F)
Dewpoint: 4.0°C (39°F) [RH = 71%]
Pressure (altimeter): 30.47 inches Hg (1032.0 mb)
Winds: from the NW (310 degrees) at 9 MPH (8 knots; 4.1 m/s)
Visibility: 6 or more miles (10+ km)
Ceiling: at least 12,000 feet AGL
Clouds: few clouds at 2500 feet AGL
Weather: no significant weather observed at this time

METAR text: YMHB 182230Z 31008KT 9999 FEW025 08/04 Q1032
Conditions at: YMHB (HOBART/TASMANIA , AU) observed 2230 UTC 18 April 2019
Temperature: 8.0°C (46°F)
Dewpoint: 4.0°C (39°F) [RH = 76%]
Pressure (altimeter): 30.47 inches Hg (1032.0 mb)
Winds: from the NW (310 degrees) at 9 MPH (8 knots; 4.1 m/s)
Visibility: 6 or more miles (10+ km)
Ceiling: at least 12,000 feet AGL
Clouds: few clouds at 2500 feet AGL
Weather: no significant weather observed at this time

METAR text: YMHB 182200Z 32008KT 9999 FEW025 07/04 Q1032
Conditions at: YMHB (HOBART/TASMANIA , AU) observed 2200 UTC 18 April 2019
Temperature: 7.0°C (45°F)
Dewpoint: 4.0°C (39°F) [RH = 81%]
Pressure (altimeter): 30.47 inches Hg (1032.0 mb)
Winds: from the NW (320 degrees) at 9 MPH (8 knots; 4.1 m/s)
Visibility: 6 or more miles (10+ km)
Ceiling: at least 12,000 feet AGL
Clouds: few clouds at 2500 feet AGL
Weather: no significant weather observed at this time

METAR text: YMHB 182130Z 32008KT 9999 FEW025 06/04 Q1031
Conditions at: YMHB (HOBART/TASMANIA , AU) observed 2130 UTC 18 April 2019
Temperature: 6.0°C (43°F)
Dewpoint: 4.0°C (39°F) [RH = 87%]
Pressure (altimeter): 30.44 inches Hg (1031.0 mb)
Winds: from the NW (320 degrees) at 9 MPH (8 knots; 4.1 m/s)
Visibility: 6 or more miles (10+ km)
Ceiling: at least 12,000 feet AGL
Clouds: few clouds at 2500 feet AGL
Weather: no significant weather observed at this time

METAR text: YMHB 182100Z 30008KT 9999 FEW040 06/04 Q1031
Conditions at: YMHB (HOBART/TASMANIA , AU) observed 2100 UTC 18 April 2019
Temperature: 6.0°C (43°F)
Dewpoint: 4.0°C (39°F) [RH = 87%]
Pressure (altimeter): 30.44 inches Hg (1031.0 mb)
Winds: from the WNW (300 degrees) at 9 MPH (8 knots; 4.1 m/s)
Visibility: 6 or more miles (10+ km)
Ceiling: at least 12,000 feet AGL
Clouds: few clouds at 4000 feet AGL
Weather: no significant weather observed at this time

METAR text: YMHB 182030Z 30008KT 9999 FEW040 06/04 Q1031
Conditions at: YMHB (HOBART/TASMANIA , AU) observed 2030 UTC 18 April 2019
Temperature: 6.0°C (43°F)
Dewpoint: 4.0°C (39°F) [RH = 87%]
Pressure (altimeter): 30.44 inches Hg (1031.0 mb)
Winds: from the WNW (300 degrees) at 9 MPH (8 knots; 4.1 m/s)
Visibility: 6 or more miles (10+ km)
Ceiling: at least 12,000 feet AGL
Clouds: few clouds at 4000 feet AGL
Weather: no significant weather observed at this time

METAR text: YMHB 182000Z 33007KT 9999 FEW040 06/04 Q1031
Conditions at: YMHB (HOBART/TASMANIA , AU) observed 2000 UTC 18 April 2019
Temperature: 6.0°C (43°F)
Dewpoint: 4.0°C (39°F) [RH = 87%]
Pressure (altimeter): 30.44 inches Hg (1031.0 mb)
Winds: from the NNW (330 degrees) at 8 MPH (7 knots; 3.6 m/s)
Visibility: 6 or more miles (10+ km)
Ceiling: at least 12,000 feet AGL
Clouds: few clouds at 4000 feet AGL
Weather: no significant weather observed at this time

METAR text: YMHB 181930Z 32009KT 9999 FEW045 06/04 Q1031
Conditions at: YMHB (HOBART/TASMANIA , AU) observed 1930 UTC 18 April 2019
Temperature: 6.0°C (43°F)
Dewpoint: 4.0°C (39°F) [RH = 87%]
Pressure (altimeter): 30.44 inches Hg (1031.0 mb)
Winds: from the NW (320 degrees) at 10 MPH (9 knots; 4.6 m/s)
Visibility: 6 or more miles (10+ km)
Ceiling: at least 12,000 feet AGL
Clouds: few clouds at 4500 feet AGL
Weather: no significant weather observed at this time

METAR text: YMHB 181900Z 29007KT 9999 FEW045 06/04 Q1030
Conditions at: YMHB (HOBART/TASMANIA , AU) observed 1900 UTC 18 April 2019
Temperature: 6.0°C (43°F)
Dewpoint: 4.0°C (39°F) [RH = 87%]
Pressure (altimeter): 30.41 inches Hg (1030.0 mb)
Winds: from the WNW (290 degrees) at 8 MPH (7 knots; 3.6 m/s)
Visibility: 6 or more miles (10+ km)
Ceiling: at least 12,000 feet AGL
Clouds: few clouds at 4500 feet AGL
Weather: no significant weather observed at this time

METAR text: YMHB 181830Z 32006KT 9999 FEW045 06/04 Q1030
Conditions at: YMHB (HOBART/TASMANIA , AU) observed 1830 UTC 18 April 2019
Temperature: 6.0°C (43°F)
Dewpoint: 4.0°C (39°F) [RH = 87%]
Pressure (altimeter): 30.41 inches Hg (1030.0 mb)
Winds: from the NW (320 degrees) at 7 MPH (6 knots; 3.1 m/s)
Visibility: 6 or more miles (10+ km)
Ceiling: at least 12,000 feet AGL
Clouds: few clouds at 4500 feet AGL
Weather: no significant weather observed at this time

METAR text: YMHB 181800Z 33007KT 9999 FEW045 07/05 Q1030
Conditions at: YMHB (HOBART/TASMANIA , AU) observed 1800 UTC 18 April 2019
Temperature: 7.0°C (45°F)
Dewpoint: 5.0°C (41°F) [RH = 87%]
Pressure (altimeter): 30.41 inches Hg (1030.0 mb)
Winds: from the NNW (330 degrees) at 8 MPH (7 knots; 3.6 m/s)
Visibility: 6 or more miles (10+ km)
Ceiling: at least 12,000 feet AGL
Clouds: few clouds at 4500 feet AGL
Weather: no significant weather observed at this time

METAR text: YMHB 181730Z 33003KT 9999 FEW045 07/04 Q1030
Conditions at: YMHB (HOBART/TASMANIA , AU) observed 1730 UTC 18 April 2019
Temperature: 7.0°C (45°F)
Dewpoint: 4.0°C (39°F) [RH = 81%]
Pressure (altimeter): 30.41 inches Hg (1030.0 mb)
Winds: from the NNW (330 degrees) at 3 MPH (3 knots; 1.5 m/s)
Visibility: 6 or more miles (10+ km)
Ceiling: at least 12,000 feet AGL
Clouds: few clouds at 4500 feet AGL
Weather: no significant weather observed at this time

METAR text: YMHB 181700Z 28005KT 9999 FEW045 07/04 Q1030
Conditions at: YMHB (HOBART/TASMANIA , AU) observed 1700 UTC 18 April 2019
Temperature: 7.0°C (45°F)
Dewpoint: 4.0°C (39°F) [RH = 81%]
Pressure (altimeter): 30.41 inches Hg (1030.0 mb)
Winds: from the W (280 degrees) at 6 MPH (5 knots; 2.6 m/s)
Visibility: 6 or more miles (10+ km)
Ceiling: at least 12,000 feet AGL
Clouds: few clouds at 4500 feet AGL
Weather: no significant weather observed at this time

METAR text: YMHB 181630Z 29004KT 260V320 9999 FEW045 08/04 Q1030 RF00.0/000.0
Conditions at: YMHB (HOBART/TASMANIA , AU) observed 1630 UTC 18 April 2019
Temperature: 8.0°C (46°F)
Dewpoint: 4.0°C (39°F) [RH = 76%]
Pressure (altimeter): 30.41 inches Hg (1030.0 mb)
Winds: from the WNW (290 degrees) at 5 MPH (4 knots; 2.1 m/s)
Visibility: 6 or more miles (10+ km)
Ceiling: at least 12,000 feet AGL
Clouds: few clouds at 4500 feet AGL
Weather: no significant weather observed at this time

METAR text: YMHB 181600Z 28006KT 9999 FEW045 07/04 Q1030
Conditions at: YMHB (HOBART/TASMANIA , AU) observed 1600 UTC 18 April 2019
Temperature: 7.0°C (45°F)
Dewpoint: 4.0°C (39°F) [RH = 81%]
Pressure (altimeter): 30.41 inches Hg (1030.0 mb)
Winds: from the W (280 degrees) at 7 MPH (6 knots; 3.1 m/s)
Visibility: 6 or more miles (10+ km)
Ceiling: at least 12,000 feet AGL
Clouds: few clouds at 4500 feet AGL
Weather: no significant weather observed at this time

METAR text: YMHB 181530Z 30006KT 9999 FEW045 SCT220 08/04 Q1030 RF00.0/000.0
Conditions at: YMHB (HOBART/TASMANIA , AU) observed 1530 UTC 18 April 2019
Temperature: 8.0°C (46°F)
Dewpoint: 4.0°C (39°F) [RH = 76%]
Pressure (altimeter): 30.41 inches Hg (1030.0 mb)
Winds: from the WNW (300 degrees) at 7 MPH (6 knots; 3.1 m/s)
Visibility: 6 or more miles (10+ km)
Ceiling: at least 12,000 feet AGL
Clouds: few clouds at 4500 feet AGL
scattered clouds at 22000 feet AGL
Weather: no significant weather observed at this time

METAR text: YMHB 181500Z 31005KT 9999 FEW045 BKN220 08/04 Q1030 RF00.0/000.0
Conditions at: YMHB (HOBART/TASMANIA , AU) observed 1500 UTC 18 April 2019
Temperature: 8.0°C (46°F)
Dewpoint: 4.0°C (39°F) [RH = 76%]
Pressure (altimeter): 30.41 inches Hg (1030.0 mb)
Winds: from the NW (310 degrees) at 6 MPH (5 knots; 2.6 m/s)
Visibility: 6 or more miles (10+ km)
Ceiling: 22000 feet AGL
Clouds: few clouds at 4500 feet AGL
broken clouds at 22000 feet AGL
Weather: no significant weather observed at this time

METAR text: YMHB 181430Z 25005KT 9999 FEW045 SCT300 08/04 Q1030 RF00.0/000.0
Conditions at: YMHB (HOBART/TASMANIA , AU) observed 1430 UTC 18 April 2019
Temperature: 8.0°C (46°F)
Dewpoint: 4.0°C (39°F) [RH = 76%]
Pressure (altimeter): 30.41 inches Hg (1030.0 mb)
Winds: from the WSW (250 degrees) at 6 MPH (5 knots; 2.6 m/s)
Visibility: 6 or more miles (10+ km)
Ceiling: at least 12,000 feet AGL
Clouds: few clouds at 4500 feet AGL
scattered clouds at 30000 feet AGL
Weather: no significant weather observed at this time

METAR text: YMHB 181400Z 29003KT 9999 FEW045 SCT057 BKN300 09/05 Q1030 RF00.0/000.0
Conditions at: YMHB (HOBART/TASMANIA , AU) observed 1400 UTC 18 April 2019
Temperature: 9.0°C (48°F)
Dewpoint: 5.0°C (41°F) [RH = 76%]
Pressure (altimeter): 30.41 inches Hg (1030.0 mb)
Winds: from the WNW (290 degrees) at 3 MPH (3 knots; 1.5 m/s)
Visibility: 6 or more miles (10+ km)
Ceiling: 30000 feet AGL
Clouds: few clouds at 4500 feet AGL
scattered clouds at 5700 feet AGL
broken clouds at 30000 feet AGL
Weather: no significant weather observed at this time

METAR text: YMHB 181330Z 33005KT 9999 FEW045 BKN055 10/05 Q1030 RF00.0/000.0
Conditions at: YMHB (HOBART/TASMANIA , AU) observed 1330 UTC 18 April 2019
Temperature: 10.0°C (50°F)
Dewpoint: 5.0°C (41°F) [RH = 71%]
Pressure (altimeter): 30.41 inches Hg (1030.0 mb)
Winds: from the NNW (330 degrees) at 6 MPH (5 knots; 2.6 m/s)
Visibility: 6 or more miles (10+ km)
Ceiling: 5500 feet AGL
Clouds: few clouds at 4500 feet AGL
broken clouds at 5500 feet AGL
Weather: no significant weather observed at this time

METAR text: YMHB 181300Z 32002KT 9999 BKN045 10/06 Q1030
Conditions at: YMHB (HOBART/TASMANIA , AU) observed 1300 UTC 18 April 2019
Temperature: 10.0°C (50°F)
Dewpoint: 6.0°C (43°F) [RH = 76%]
Pressure (altimeter): 30.41 inches Hg (1030.0 mb)
Winds: from the NW (320 degrees) at 2 MPH (2 knots; 1.0 m/s)
Visibility: 6 or more miles (10+ km)
Ceiling: 4500 feet AGL
Clouds: broken clouds at 4500 feet AGL
Weather: no significant weather observed at this time

METAR text: YMHB 181230Z 32005KT 9999 FEW030 BKN045 10/05 Q1030 RF00.0/000.0
Conditions at: YMHB (HOBART/TASMANIA , AU) observed 1230 UTC 18 April 2019
Temperature: 10.0°C (50°F)
Dewpoint: 5.0°C (41°F) [RH = 71%]
Pressure (altimeter): 30.41 inches Hg (1030.0 mb)
Winds: from the NW (320 degrees) at 6 MPH (5 knots; 2.6 m/s)
Visibility: 6 or more miles (10+ km)
Ceiling: 4500 feet AGL
Clouds: few clouds at 3000 feet AGL
broken clouds at 4500 feet AGL
Weather: no significant weather observed at this time

METAR text: YMHB 181200Z 32005KT 280V350 9999 FEW030 BKN050 10/04 Q1030
Conditions at: YMHB (HOBART/TASMANIA , AU) observed 1200 UTC 18 April 2019
Temperature: 10.0°C (50°F)
Dewpoint: 4.0°C (39°F) [RH = 66%]
Pressure (altimeter): 30.41 inches Hg (1030.0 mb)
Winds: from the NW (320 degrees) at 6 MPH (5 knots; 2.6 m/s)
Visibility: 6 or more miles (10+ km)
Ceiling: 5000 feet AGL
Clouds: few clouds at 3000 feet AGL
broken clouds at 5000 feet AGL
Weather: no significant weather observed at this time

METAR text: YMHB 181130Z 25004KT 9999 FEW045 10/04 Q1029
Conditions at: YMHB (HOBART/TASMANIA , AU) observed 1130 UTC 18 April 2019
Temperature: 10.0°C (50°F)
Dewpoint: 4.0°C (39°F) [RH = 66%]
Pressure (altimeter): 30.38 inches Hg (1029.0 mb)
Winds: from the WSW (250 degrees) at 5 MPH (4 knots; 2.1 m/s)
Visibility: 6 or more miles (10+ km)
Ceiling: at least 12,000 feet AGL
Clouds: few clouds at 4500 feet AGL
Weather: no significant weather observed at this time

METAR text: YMHB 181100Z 26006KT 9999 FEW047 SCT300 10/04 Q1029 RF00.0/000.0
Conditions at: YMHB (HOBART/TASMANIA , AU) observed 1100 UTC 18 April 2019
Temperature: 10.0°C (50°F)
Dewpoint: 4.0°C (39°F) [RH = 66%]
Pressure (altimeter): 30.38 inches Hg (1029.0 mb)
Winds: from the W (260 degrees) at 7 MPH (6 knots; 3.1 m/s)
Visibility: 6 or more miles (10+ km)
Ceiling: at least 12,000 feet AGL
Clouds: few clouds at 4700 feet AGL
scattered clouds at 30000 feet AGL
Weather: no significant weather observed at this time

METAR text: YMHB 181030Z 21006KT 9999 SCT050 SCT300 10/04 Q1028 RF00.0/000.0
Conditions at: YMHB (HOBART/TASMANIA , AU) observed 1030 UTC 18 April 2019
Temperature: 10.0°C (50°F)
Dewpoint: 4.0°C (39°F) [RH = 66%]
Pressure (altimeter): 30.35 inches Hg (1028.0 mb)
Winds: from the SSW (210 degrees) at 7 MPH (6 knots; 3.1 m/s)
Visibility: 6 or more miles (10+ km)
Ceiling: at least 12,000 feet AGL
Clouds: scattered clouds at 5000 feet AGL
scattered clouds at 30000 feet AGL
Weather: no significant weather observed at this time

METAR text: YMHB 181000Z 21008KT 9999 FEW030 SCT050 11/04 Q1028 RF00.0/000.0
Conditions at: YMHB (HOBART/TASMANIA , AU) observed 1000 UTC 18 April 2019
Temperature: 11.0°C (52°F)
Dewpoint: 4.0°C (39°F) [RH = 62%]
Pressure (altimeter): 30.35 inches Hg (1028.0 mb)
Winds: from the SSW (210 degrees) at 9 MPH (8 knots; 4.1 m/s)
Visibility: 6 or more miles (10+ km)
Ceiling: at least 12,000 feet AGL
Clouds: few clouds at 3000 feet AGL
scattered clouds at 5000 feet AGL
Weather: no significant weather observed at this time

METAR text: YMHB 180930Z 21007KT 9999 FEW035 BKN050 12/04 Q1028 RF00.0/000.0
Conditions at: YMHB (HOBART/TASMANIA , AU) observed 0930 UTC 18 April 2019
Temperature: 12.0°C (54°F)
Dewpoint: 4.0°C (39°F) [RH = 58%]
Pressure (altimeter): 30.35 inches Hg (1028.0 mb)
Winds: from the SSW (210 degrees) at 8 MPH (7 knots; 3.6 m/s)
Visibility: 6 or more miles (10+ km)
Ceiling: 5000 feet AGL
Clouds: few clouds at 3500 feet AGL
broken clouds at 5000 feet AGL
Weather: no significant weather observed at this time

METAR text: YMHB 180900Z 21011KT 9999 FEW040 BKN060 12/04 Q1027 RF00.0/000.0
Conditions at: YMHB (HOBART/TASMANIA , AU) observed 0900 UTC 18 April 2019
Temperature: 12.0°C (54°F)
Dewpoint: 4.0°C (39°F) [RH = 58%]
Pressure (altimeter): 30.32 inches Hg (1027.0 mb)
Winds: from the SSW (210 degrees) at 13 MPH (11 knots; 5.7 m/s)
Visibility: 6 or more miles (10+ km)
Ceiling: 6000 feet AGL
Clouds: few clouds at 4000 feet AGL
broken clouds at 6000 feet AGL
Weather: no significant weather observed at this time

METAR text: YMHB 180830Z 21009KT 9999 SCT044 12/03 Q1027
Conditions at: YMHB (HOBART/TASMANIA , AU) observed 0830 UTC 18 April 2019
Temperature: 12.0°C (54°F)
Dewpoint: 3.0°C (37°F) [RH = 54%]
Pressure (altimeter): 30.32 inches Hg (1027.0 mb)
Winds: from the SSW (210 degrees) at 10 MPH (9 knots; 4.6 m/s)
Visibility: 6 or more miles (10+ km)
Ceiling: at least 12,000 feet AGL
Clouds: scattered clouds at 4400 feet AGL
Weather: no significant weather observed at this time

METAR text: YMHB 180800Z 22011KT 9999 VCSH SCT048 12/03 Q1026 RF00.0/000.0
Conditions at: YMHB (HOBART/TASMANIA , AU) observed 0800 UTC 18 April 2019
Temperature: 12.0°C (54°F)
Dewpoint: 3.0°C (37°F) [RH = 54%]
Pressure (altimeter): 30.30 inches Hg (1026.0 mb)
Winds: from the SW (220 degrees) at 13 MPH (11 knots; 5.7 m/s)
Visibility: 6 or more miles (10+ km)
Ceiling: at least 12,000 feet AGL
Clouds: scattered clouds at 4800 feet AGL
Weather: VCSH  (showers in vicinity)

METAR text: YMHB 180730Z 21012KT 9999 VCSH BKN053 13/03 Q1026 RF00.0/000.0
Conditions at: YMHB (HOBART/TASMANIA , AU) observed 0730 UTC 18 April 2019
Temperature: 13.0°C (55°F)
Dewpoint: 3.0°C (37°F) [RH = 51%]
Pressure (altimeter): 30.30 inches Hg (1026.0 mb)
Winds: from the SSW (210 degrees) at 14 MPH (12 knots; 6.2 m/s)
Visibility: 6 or more miles (10+ km)
Ceiling: 5300 feet AGL
Clouds: broken clouds at 5300 feet AGL
Weather: VCSH  (showers in vicinity)

METAR text: YMHB 180700Z 21014KT 9999 BKN055 13/02 Q1025
Conditions at: YMHB (HOBART/TASMANIA , AU) observed 0700 UTC 18 April 2019
Temperature: 13.0°C (55°F)
Dewpoint: 2.0°C (36°F) [RH = 47%]
Pressure (altimeter): 30.27 inches Hg (1025.0 mb)
Winds: from the SSW (210 degrees) at 16 MPH (14 knots; 7.2 m/s)
Visibility: 6 or more miles (10+ km)
Ceiling: 5500 feet AGL
Clouds: broken clouds at 5500 feet AGL
Weather: no significant weather observed at this time

METAR text: YMHB 180630Z 20009KT 9999 BKN055 14/03 Q1025
Conditions at: YMHB (HOBART/TASMANIA , AU) observed 0630 UTC 18 April 2019
Temperature: 14.0°C (57°F)
Dewpoint: 3.0°C (37°F) [RH = 47%]
Pressure (altimeter): 30.27 inches Hg (1025.0 mb)
Winds: from the SSW (200 degrees) at 10 MPH (9 knots; 4.6 m/s)
Visibility: 6 or more miles (10+ km)
Ceiling: 5500 feet AGL
Clouds: broken clouds at 5500 feet AGL
Weather: no significant weather observed at this time

METAR text: YMHB 180600Z 21013KT 9999 VCSH FEW035 BKN055 14/02 Q1024 RF00.0/000.0
Conditions at: YMHB (HOBART/TASMANIA , AU) observed 0600 UTC 18 April 2019
Temperature: 14.0°C (57°F)
Dewpoint: 2.0°C (36°F) [RH = 44%]
Pressure (altimeter): 30.24 inches Hg (1024.0 mb)
Winds: from the SSW (210 degrees) at 15 MPH (13 knots; 6.7 m/s)
Visibility: 6 or more miles (10+ km)
Ceiling: 5500 feet AGL
Clouds: few clouds at 3500 feet AGL
broken clouds at 5500 feet AGL
Weather: VCSH  (showers in vicinity)

METAR text: YMHB 180530Z 23011KT 9999 SCT055 15/02 Q1024
Conditions at: YMHB (HOBART/TASMANIA , AU) observed 0530 UTC 18 April 2019
Temperature: 15.0°C (59°F)
Dewpoint: 2.0°C (36°F) [RH = 41%]
Pressure (altimeter): 30.24 inches Hg (1024.0 mb)
Winds: from the SW (230 degrees) at 13 MPH (11 knots; 5.7 m/s)
Visibility: 6 or more miles (10+ km)
Ceiling: at least 12,000 feet AGL
Clouds: scattered clouds at 5500 feet AGL
Weather: no significant weather observed at this time

METAR text: YMHB 180500Z 23014KT 9999 SCT055 15/01 Q1024
Conditions at: YMHB (HOBART/TASMANIA , AU) observed 0500 UTC 18 April 2019
Temperature: 15.0°C (59°F)
Dewpoint: 1.0°C (34°F) [RH = 39%]
Pressure (altimeter): 30.24 inches Hg (1024.0 mb)
Winds: from the SW (230 degrees) at 16 MPH (14 knots; 7.2 m/s)
Visibility: 6 or more miles (10+ km)
Ceiling: at least 12,000 feet AGL
Clouds: scattered clouds at 5500 feet AGL
Weather: no significant weather observed at this time

METAR text: YMHB 180430Z 22013KT 9999 BKN055 15/01 Q1023
Conditions at: YMHB (HOBART/TASMANIA , AU) observed 0430 UTC 18 April 2019
Temperature: 15.0°C (59°F)
Dewpoint: 1.0°C (34°F) [RH = 39%]
Pressure (altimeter): 30.21 inches Hg (1023.0 mb)
Winds: from the SW (220 degrees) at 15 MPH (13 knots; 6.7 m/s)
Visibility: 6 or more miles (10+ km)
Ceiling: 5500 feet AGL
Clouds: broken clouds at 5500 feet AGL
Weather: no significant weather observed at this time

METAR text: YMHB 180400Z 25012KT 9999 BKN054 15/00 Q1023
Conditions at: YMHB (HOBART/TASMANIA , AU) observed 0400 UTC 18 April 2019
Temperature: 15.0°C (59°F)
Dewpoint: 0.0°C (32°F) [RH = 36%]
Pressure (altimeter): 30.21 inches Hg (1023.0 mb)
Winds: from the WSW (250 degrees) at 14 MPH (12 knots; 6.2 m/s)
Visibility: 6 or more miles (10+ km)
Ceiling: 5400 feet AGL
Clouds: broken clouds at 5400 feet AGL
Weather: no significant weather observed at this time

METAR text: YMHB 180330Z 22013KT 9999 SCT050 16/M00 Q1022
Conditions at: YMHB (HOBART/TASMANIA , AU) observed 0330 UTC 18 April 2019
Temperature: 16.0°C (61°F)
Dewpoint: 0.0°C (32°F) [RH = 34%]
Pressure (altimeter): 30.18 inches Hg (1022.0 mb)
Winds: from the SW (220 degrees) at 15 MPH (13 knots; 6.7 m/s)
Visibility: 6 or more miles (10+ km)
Ceiling: at least 12,000 feet AGL
Clouds: scattered clouds at 5000 feet AGL
Weather: no significant weather observed at this time

METAR text: YMHB 180300Z 22012KT 9999 BKN048 15/01 Q1022
Conditions at: YMHB (HOBART/TASMANIA , AU) observed 0300 UTC 18 April 2019
Temperature: 15.0°C (59°F)
Dewpoint: 1.0°C (34°F) [RH = 39%]
Pressure (altimeter): 30.18 inches Hg (1022.0 mb)
Winds: from the SW (220 degrees) at 14 MPH (12 knots; 6.2 m/s)
Visibility: 6 or more miles (10+ km)
Ceiling: 4800 feet AGL
Clouds: broken clouds at 4800 feet AGL
Weather: no significant weather observed at this time

METAR text: YMHB 180230Z 31009KT 9999 BKN047 FEW045TCU 15/04 Q1022 RF00.0/000.0 TCU TO DISTANT SE.
Conditions at: YMHB (HOBART/TASMANIA , AU) observed 0230 UTC 18 April 2019
Temperature: 15.0°C (59°F)
Dewpoint: 4.0°C (39°F) [RH = 48%]
Pressure (altimeter): 30.18 inches Hg (1022.0 mb)
Winds: from the NW (310 degrees) at 10 MPH (9 knots; 4.6 m/s)
Visibility: 6 or more miles (10+ km)
Ceiling: 4700 feet AGL
Clouds: broken clouds at 4700 feet AGL
few clouds at 4500 feet AGL
Weather: no significant weather observed at this time

METAR text: YMHB 180200Z 30008KT 9999 SCT048 15/04 Q1022
Conditions at: YMHB (HOBART/TASMANIA , AU) observed 0200 UTC 18 April 2019
Temperature: 15.0°C (59°F)
Dewpoint: 4.0°C (39°F) [RH = 48%]
Pressure (altimeter): 30.18 inches Hg (1022.0 mb)
Winds: from the WNW (300 degrees) at 9 MPH (8 knots; 4.1 m/s)
Visibility: 6 or more miles (10+ km)
Ceiling: at least 12,000 feet AGL
Clouds: scattered clouds at 4800 feet AGL
Weather: no significant weather observed at this time

METAR text: YMHB 180130Z 31008KT 9999 SCT045 15/04 Q1022
Conditions at: YMHB (HOBART/TASMANIA , AU) observed 0130 UTC 18 April 2019
Temperature: 15.0°C (59°F)
Dewpoint: 4.0°C (39°F) [RH = 48%]
Pressure (altimeter): 30.18 inches Hg (1022.0 mb)
Winds: from the NW (310 degrees) at 9 MPH (8 knots; 4.1 m/s)
Visibility: 6 or more miles (10+ km)
Ceiling: at least 12,000 feet AGL
Clouds: scattered clouds at 4500 feet AGL
Weather: no significant weather observed at this time

METAR text: YMHB 180100Z 29013KT 9999 SCT040 15/04 Q1022
Conditions at: YMHB (HOBART/TASMANIA , AU) observed 0100 UTC 18 April 2019
Temperature: 15.0°C (59°F)
Dewpoint: 4.0°C (39°F) [RH = 48%]
Pressure (altimeter): 30.18 inches Hg (1022.0 mb)
Winds: from the WNW (290 degrees) at 15 MPH (13 knots; 6.7 m/s)
Visibility: 6 or more miles (10+ km)
Ceiling: at least 12,000 feet AGL
Clouds: scattered clouds at 4000 feet AGL
Weather: no significant weather observed at this time

METAR text: YMHB 180030Z 29015KT 9999 FEW036 14/04 Q1021
Conditions at: YMHB (HOBART/TASMANIA , AU) observed 0030 UTC 18 April 2019
Temperature: 14.0°C (57°F)
Dewpoint: 4.0°C (39°F) [RH = 51%]
Pressure (altimeter): 30.15 inches Hg (1021.0 mb)
Winds: from the WNW (290 degrees) at 17 MPH (15 knots; 7.7 m/s)
Visibility: 6 or more miles (10+ km)
Ceiling: at least 12,000 feet AGL
Clouds: few clouds at 3600 feet AGL
Weather: no significant weather observed at this time

METAR text: YMHB 180000Z 30012KT 9999 FEW035 13/04 Q1021
Conditions at: YMHB (HOBART/TASMANIA , AU) observed 0000 UTC 18 April 2019
Temperature: 13.0°C (55°F)
Dewpoint: 4.0°C (39°F) [RH = 54%]
Pressure (altimeter): 30.15 inches Hg (1021.0 mb)
Winds: from the WNW (300 degrees) at 14 MPH (12 knots; 6.2 m/s)
Visibility: 6 or more miles (10+ km)
Ceiling: at least 12,000 feet AGL
Clouds: few clouds at 3500 feet AGL
Weather: no significant weather observed at this time

METAR text: YMHB 172330Z 28014KT 9999 FEW033 SCT150 FEW033TCU 13/03 Q1021
Conditions at: YMHB (HOBART/TASMANIA , AU) observed 2330 UTC 17 April 2019
Temperature: 13.0°C (55°F)
Dewpoint: 3.0°C (37°F) [RH = 51%]
Pressure (altimeter): 30.15 inches Hg (1021.0 mb)
Winds: from the W (280 degrees) at 16 MPH (14 knots; 7.2 m/s)
Visibility: 6 or more miles (10+ km)
Ceiling: at least 12,000 feet AGL
Clouds: few clouds at 3300 feet AGL
scattered clouds at 15000 feet AGL
few clouds at 3300 feet AGL
Weather: no significant weather observed at this time

METAR text: YMHB 172300Z 31012KT 9999 FEW025 SCT160 BKN190 FEW033CB 12/03 Q1020
Conditions at: YMHB (HOBART/TASMANIA , AU) observed 2300 UTC 17 April 2019
Temperature: 12.0°C (54°F)
Dewpoint: 3.0°C (37°F) [RH = 54%]
Pressure (altimeter): 30.12 inches Hg (1020.0 mb)
Winds: from the NW (310 degrees) at 14 MPH (12 knots; 6.2 m/s)
Visibility: 6 or more miles (10+ km)
Ceiling: 19000 feet AGL
Clouds: few clouds at 2500 feet AGL
scattered clouds at 16000 feet AGL
broken clouds at 19000 feet AGL
few clouds at 3300 feet AGL
Weather: no significant weather observed at this time

METAR text: YMHB 172230Z 30015KT 9999 FEW025 SCT057 BKN140 FEW030CB 11/04 Q1020
Conditions at: YMHB (HOBART/TASMANIA , AU) observed 2230 UTC 17 April 2019
Temperature: 11.0°C (52°F)
Dewpoint: 4.0°C (39°F) [RH = 62%]
Pressure (altimeter): 30.12 inches Hg (1020.0 mb)
Winds: from the WNW (300 degrees) at 17 MPH (15 knots; 7.7 m/s)
Visibility: 6 or more miles (10+ km)
Ceiling: 14000 feet AGL
Clouds: few clouds at 2500 feet AGL
scattered clouds at 5700 feet AGL
broken clouds at 14000 feet AGL
few clouds at 3000 feet AGL
Weather: no significant weather observed at this time

METAR text: YMHB 172200Z 29012KT 9999 FEW025 SCT030 BKN070 11/04 Q1019 RF00.0/008.4
Conditions at: YMHB (HOBART/TASMANIA , AU) observed 2200 UTC 17 April 2019
Temperature: 11.0°C (52°F)
Dewpoint: 4.0°C (39°F) [RH = 62%]
Pressure (altimeter): 30.09 inches Hg (1019.0 mb)
Winds: from the WNW (290 degrees) at 14 MPH (12 knots; 6.2 m/s)
Visibility: 6 or more miles (10+ km)
Ceiling: 7000 feet AGL
Clouds: few clouds at 2500 feet AGL
scattered clouds at 3000 feet AGL
broken clouds at 7000 feet AGL
Weather: no significant weather observed at this time

METAR text: YMHB 172130Z 29015KT 9999 VCSH FEW024 SCT033 BKN062 11/04 Q1019
Conditions at: YMHB (HOBART/TASMANIA , AU) observed 2130 UTC 17 April 2019
Temperature: 11.0°C (52°F)
Dewpoint: 4.0°C (39°F) [RH = 62%]
Pressure (altimeter): 30.09 inches Hg (1019.0 mb)
Winds: from the WNW (290 degrees) at 17 MPH (15 knots; 7.7 m/s)
Visibility: 6 or more miles (10+ km)
Ceiling: 6200 feet AGL
Clouds: few clouds at 2400 feet AGL
scattered clouds at 3300 feet AGL
broken clouds at 6200 feet AGL
Weather: VCSH  (showers in vicinity)

METAR text: YMHB 172100Z 32009KT 9999 -SHRA FEW024 SCT030 BKN052 11/06 Q1018
Conditions at: YMHB (HOBART/TASMANIA , AU) observed 2100 UTC 17 April 2019
Temperature: 11.0°C (52°F)
Dewpoint: 6.0°C (43°F) [RH = 71%]
Pressure (altimeter): 30.06 inches Hg (1018.0 mb)
Winds: from the NW (320 degrees) at 10 MPH (9 knots; 4.6 m/s)
Visibility: 6 or more miles (10+ km)
Ceiling: 5200 feet AGL
Clouds: few clouds at 2400 feet AGL
scattered clouds at 3000 feet AGL
broken clouds at 5200 feet AGL
Weather: -SHRA  (light rain showers)

METAR text: YMHB 172030Z 31015KT 9999 VCSH FEW030 SCT058 BKN097 12/06 Q1017
Conditions at: YMHB (HOBART/TASMANIA , AU) observed 2030 UTC 17 April 2019
Temperature: 12.0°C (54°F)
Dewpoint: 6.0°C (43°F) [RH = 67%]
Pressure (altimeter): 30.03 inches Hg (1017.0 mb)
Winds: from the NW (310 degrees) at 17 MPH (15 knots; 7.7 m/s)
Visibility: 6 or more miles (10+ km)
Ceiling: 9700 feet AGL
Clouds: few clouds at 3000 feet AGL
scattered clouds at 5800 feet AGL
broken clouds at 9700 feet AGL
Weather: VCSH  (showers in vicinity)

METAR text: YMHB 172019Z 32015G25KT 9999 FEW030 SCT065 BKN093 11/06 Q1016
Conditions at: YMHB (HOBART/TASMANIA , AU) observed 2019 UTC 17 April 2019
Temperature: 11.0°C (52°F)
Dewpoint: 6.0°C (43°F) [RH = 71%]
Pressure (altimeter): 30.00 inches Hg (1016.0 mb)
Winds: from the NW (320 degrees) at 17 MPH (15 knots; 7.7 m/s)
gusting to 29 MPH (25 knots; 12.9 m/s)
Visibility: 6 or more miles (10+ km)
Ceiling: 9300 feet AGL
Clouds: few clouds at 3000 feet AGL
scattered clouds at 6500 feet AGL
broken clouds at 9300 feet AGL
Weather: no significant weather observed at this time

Forecast for: YMHB (HOBART/TASMANIA , AU)
Text: TAF YMHB 190509Z 1906/2006 12012KT CAVOK
Forecast period: 0600 to 0800 UTC 19 April 2019
Forecast type: FROM: standard forecast or significant change
Winds: from the ESE (120 degrees) at 14 MPH (12 knots; 6.2 m/s)
Visibility: 6 or more miles 10+ km)
Ceiling: unknown
Clouds: missing
Weather: NSW  (no significant weather)
Text: FM190800 03007KT CAVOK
Forecast period: 0800 to 1000 UTC 19 April 2019
Forecast type: FROM: standard forecast or significant change
Winds: from the NNE (30 degrees) at 8 MPH (7 knots; 3.6 m/s)
Visibility: 6 or more miles 10+ km)
Ceiling: unknown
Clouds: missing
Weather: NSW  (no significant weather)
Text: FM191000 33007KT CAVOK
Forecast period: 1000 to 2000 UTC 19 April 2019
Forecast type: FROM: standard forecast or significant change
Winds: from the NNW (330 degrees) at 8 MPH (7 knots; 3.6 m/s)
Visibility: 6 or more miles 10+ km)
Ceiling: unknown
Clouds: missing
Weather: NSW  (no significant weather)
Text: FM192000 34012KT CAVOK
Forecast period: 2000 UTC 19 April 2019 to 0600 UTC 20 April 2019
Forecast type: FROM: standard forecast or significant change
Winds: from the NNW (340 degrees) at 14 MPH (12 knots; 6.2 m/s)
Visibility: 6 or more miles 10+ km)
Ceiling: unknown
Clouds: missing
Weather: NSW  (no significant weather)